CheckWX is a tool to help pilots better visualize weather data.  It is not intended as a substitute for an official pre-flight weather briefing.

23:34:47 UTC

CYWH METAR
Victoria Harbour Seaplane Base
Victoria, Canada
Current

35 mins ago

CYWH 182300Z 16007KT 10SM VCSH FEW007 SCT015 BKN050 OVC075 10/08 A2984 RMK SF1SC2SC2AC3 SLP106
Observed
Oct-18 @ 23:00 UTC
Wind
  • 160° at 7 KTS
Visibility
10 SM
Flight Rules
VFR
Cloud Levels
  • Few at 700' AGL
  • Scattered at 1,500' AGL
  • Broken at 5,000' AGL
  • Overcast at 7,500' AGL
Temperature
10°C / 50°F
Dewpoint
C / 46°F
Humidity
88%
Altimeter
29.84" Hg
Pressure
1010.52 hPa
Previous

2 hours ago

CYWH 182200Z 22005KT 15SM VCSH FEW007 FEW015 BKN030 OVC080 10/08 A2983 RMK SF1SC1SC5AC1 VIS E 5 SLP103
Observed
Oct-18 @ 22:00 UTC
Wind
  • 220° at 5 KTS
Visibility
15 SM
Flight Rules
MVFR
Cloud Levels
  • Few at 700' AGL
  • Few at 1,500' AGL
  • Broken at 3,000' AGL
  • Overcast at 8,000' AGL
Temperature
10°C / 50°F
Dewpoint
C / 46°F
Humidity
88%
Altimeter
29.83" Hg
Pressure
1010.12 hPa
Previous

3 hours ago

CYWH 182100Z 29009KT 220V340 8SM -SHRA FEW007 BKN015 OVC040 10/07 A2985 RMK SF1SC4SC3 CVCTV CLD EMBD SLP111
Observed
Oct-18 @ 21:00 UTC
Wind
  • 290° at 9 KTS
Visibility
8 SM
Flight Rules
MVFR
Conditions
Light Rain
Cloud Levels
  • Few at 700' AGL
  • Broken at 1,500' AGL
  • Overcast at 4,000' AGL
Temperature
10°C / 50°F
Dewpoint
C / 45°F
Humidity
82%
Altimeter
29.85" Hg
Pressure
1010.82 hPa